sensor_id;sensor_type;location;lat;lon;timestamp;P1;durP1;ratioP1;P2;durP2;ratioP2
25780;SDS011;13626;48.128;11.628;2023-11-19T00:00:09;1.65;;;1.35;;
25780;SDS011;13626;48.128;11.628;2023-11-19T00:02:41;1.58;;;1.33;;
25780;SDS011;13626;48.128;11.628;2023-11-19T00:05:09;1.30;;;1.20;;
25780;SDS011;13626;48.128;11.628;2023-11-19T00:07:39;2.28;;;1.30;;
25780;SDS011;13626;48.128;11.628;2023-11-19T00:10:11;1.35;;;1.25;;
25780;SDS011;13626;48.128;11.628;2023-11-19T00:12:43;1.20;;;1.10;;
25780;SDS011;13626;48.128;11.628;2023-11-19T00:15:11;1.60;;;1.30;;
25780;SDS011;13626;48.128;11.628;2023-11-19T00:17:42;1.80;;;1.60;;
25780;SDS011;13626;48.128;11.628;2023-11-19T00:20:16;1.77;;;1.40;;
25780;SDS011;13626;48.128;11.628;2023-11-19T00:22:44;1.60;;;1.50;;
25780;SDS011;13626;48.128;11.628;2023-11-19T00:25:18;1.95;;;1.63;;
25780;SDS011;13626;48.128;11.628;2023-11-19T00:27:46;1.60;;;1.50;;
25780;SDS011;13626;48.128;11.628;2023-11-19T00:30:13;1.60;;;1.50;;
25780;SDS011;13626;48.128;11.628;2023-11-19T00:32:41;2.22;;;1.80;;
25780;SDS011;13626;48.128;11.628;2023-11-19T00:35:09;2.03;;;1.50;;
25780;SDS011;13626;48.128;11.628;2023-11-19T00:37:37;1.58;;;1.35;;
25780;SDS011;13626;48.128;11.628;2023-11-19T00:40:04;2.45;;;1.77;;
25780;SDS011;13626;48.128;11.628;2023-11-19T00:42:32;1.90;;;1.58;;
25780;SDS011;13626;48.128;11.628;2023-11-19T00:45:06;1.70;;;1.50;;
25780;SDS011;13626;48.128;11.628;2023-11-19T00:47:36;1.48;;;1.38;;
25780;SDS011;13626;48.128;11.628;2023-11-19T00:50:04;2.78;;;1.85;;
25780;SDS011;13626;48.128;11.628;2023-11-19T00:52:31;1.75;;;1.63;;
25780;SDS011;13626;48.128;11.628;2023-11-19T00:54:59;2.10;;;1.52;;
25780;SDS011;13626;48.128;11.628;2023-11-19T00:57:26;1.92;;;1.60;;
25780;SDS011;13626;48.128;11.628;2023-11-19T00:59:53;2.15;;;1.67;;
25780;SDS011;13626;48.128;11.628;2023-11-19T01:02:21;3.72;;;1.73;;
25780;SDS011;13626;48.128;11.628;2023-11-19T01:04:48;2.17;;;1.98;;
25780;SDS011;13626;48.128;11.628;2023-11-19T01:07:16;3.25;;;1.58;;
25780;SDS011;13626;48.128;11.628;2023-11-19T01:09:43;1.80;;;1.63;;
25780;SDS011;13626;48.128;11.628;2023-11-19T01:12:11;1.48;;;1.38;;
25780;SDS011;13626;48.128;11.628;2023-11-19T01:14:38;2.40;;;1.70;;
25780;SDS011;13626;48.128;11.628;2023-11-19T01:17:06;2.92;;;1.92;;
25780;SDS011;13626;48.128;11.628;2023-11-19T01:19:33;2.63;;;1.58;;
25780;SDS011;13626;48.128;11.628;2023-11-19T01:22:01;1.42;;;1.23;;
25780;SDS011;13626;48.128;11.628;2023-11-19T01:24:32;1.40;;;1.25;;
25780;SDS011;13626;48.128;11.628;2023-11-19T01:27:00;2.00;;;1.45;;
25780;SDS011;13626;48.128;11.628;2023-11-19T01:29:27;1.23;;;1.13;;
25780;SDS011;13626;48.128;11.628;2023-11-19T01:31:55;1.90;;;1.50;;
25780;SDS011;13626;48.128;11.628;2023-11-19T01:34:22;1.85;;;1.30;;
25780;SDS011;13626;48.128;11.628;2023-11-19T01:36:49;1.88;;;1.40;;
25780;SDS011;13626;48.128;11.628;2023-11-19T01:39:17;1.40;;;1.30;;
25780;SDS011;13626;48.128;11.628;2023-11-19T01:41:46;1.73;;;1.30;;
25780;SDS011;13626;48.128;11.628;2023-11-19T01:44:13;3.03;;;1.75;;
25780;SDS011;13626;48.128;11.628;2023-11-19T01:46:41;1.20;;;1.10;;
25780;SDS011;13626;48.128;11.628;2023-11-19T01:49:09;1.92;;;1.30;;
25780;SDS011;13626;48.128;11.628;2023-11-19T01:51:38;1.50;;;1.30;;
25780;SDS011;13626;48.128;11.628;2023-11-19T01:54:06;3.13;;;1.10;;
25780;SDS011;13626;48.128;11.628;2023-11-19T01:56:34;2.10;;;1.38;;
25780;SDS011;13626;48.128;11.628;2023-11-19T01:59:02;1.70;;;1.20;;
25780;SDS011;13626;48.128;11.628;2023-11-19T02:01:30;1.40;;;1.13;;
25780;SDS011;13626;48.128;11.628;2023-11-19T02:04:01;2.85;;;1.17;;
25780;SDS011;13626;48.128;11.628;2023-11-19T02:06:29;1.98;;;1.40;;
25780;SDS011;13626;48.128;11.628;2023-11-19T02:08:57;1.40;;;1.15;;
25780;SDS011;13626;48.128;11.628;2023-11-19T02:11:24;1.17;;;1.00;;
25780;SDS011;13626;48.128;11.628;2023-11-19T02:13:56;1.00;;;0.90;;
25780;SDS011;13626;48.128;11.628;2023-11-19T02:16:24;1.75;;;1.10;;
25780;SDS011;13626;48.128;11.628;2023-11-19T02:18:51;2.55;;;1.10;;
25780;SDS011;13626;48.128;11.628;2023-11-19T02:21:18;0.80;;;0.80;;
25780;SDS011;13626;48.128;11.628;2023-11-19T02:23:47;1.10;;;1.00;;
25780;SDS011;13626;48.128;11.628;2023-11-19T02:26:17;1.35;;;1.00;;
25780;SDS011;13626;48.128;11.628;2023-11-19T02:28:45;1.77;;;0.65;;
25780;SDS011;13626;48.128;11.628;2023-11-19T02:31:12;1.33;;;1.10;;
25780;SDS011;13626;48.128;11.628;2023-11-19T02:33:40;1.33;;;0.80;;
25780;SDS011;13626;48.128;11.628;2023-11-19T02:36:08;1.20;;;1.00;;
25780;SDS011;13626;48.128;11.628;2023-11-19T02:38:35;1.20;;;1.10;;
25780;SDS011;13626;48.128;11.628;2023-11-19T02:41:03;1.08;;;0.98;;
25780;SDS011;13626;48.128;11.628;2023-11-19T02:43:33;1.20;;;1.00;;
25780;SDS011;13626;48.128;11.628;2023-11-19T02:46:04;1.92;;;1.08;;
25780;SDS011;13626;48.128;11.628;2023-11-19T02:48:38;0.98;;;0.70;;
25780;SDS011;13626;48.128;11.628;2023-11-19T02:51:05;0.75;;;0.70;;
25780;SDS011;13626;48.128;11.628;2023-11-19T02:53:37;1.25;;;0.90;;
25780;SDS011;13626;48.128;11.628;2023-11-19T02:56:06;0.80;;;0.70;;
25780;SDS011;13626;48.128;11.628;2023-11-19T02:58:52;0.80;;;0.80;;
25780;SDS011;13626;48.128;11.628;2023-11-19T03:01:23;1.52;;;0.90;;
25780;SDS011;13626;48.128;11.628;2023-11-19T03:03:57;1.25;;;0.88;;
25780;SDS011;13626;48.128;11.628;2023-11-19T03:06:25;1.52;;;0.82;;
25780;SDS011;13626;48.128;11.628;2023-11-19T03:08:54;0.75;;;0.73;;
25780;SDS011;13626;48.128;11.628;2023-11-19T03:11:21;1.15;;;1.05;;
25780;SDS011;13626;48.128;11.628;2023-11-19T03:13:49;1.30;;;1.00;;
25780;SDS011;13626;48.128;11.628;2023-11-19T03:16:16;1.20;;;0.90;;
25780;SDS011;13626;48.128;11.628;2023-11-19T03:18:44;1.17;;;0.93;;
25780;SDS011;13626;48.128;11.628;2023-11-19T03:21:11;1.55;;;0.88;;
25780;SDS011;13626;48.128;11.628;2023-11-19T03:23:38;1.33;;;1.00;;
25780;SDS011;13626;48.128;11.628;2023-11-19T03:26:06;1.38;;;0.90;;
25780;SDS011;13626;48.128;11.628;2023-11-19T03:28:35;1.02;;;0.93;;
25780;SDS011;13626;48.128;11.628;2023-11-19T03:31:06;0.70;;;0.70;;
25780;SDS011;13626;48.128;11.628;2023-11-19T03:33:35;0.70;;;0.70;;
25780;SDS011;13626;48.128;11.628;2023-11-19T03:36:04;1.13;;;0.65;;
25780;SDS011;13626;48.128;11.628;2023-11-19T03:38:32;1.25;;;0.90;;
25780;SDS011;13626;48.128;11.628;2023-11-19T03:40:59;1.85;;;0.90;;
25780;SDS011;13626;48.128;11.628;2023-11-19T03:43:27;1.85;;;1.02;;
25780;SDS011;13626;48.128;11.628;2023-11-19T03:45:55;1.55;;;0.82;;
25780;SDS011;13626;48.128;11.628;2023-11-19T03:48:22;0.68;;;0.68;;
25780;SDS011;13626;48.128;11.628;2023-11-19T03:50:50;1.00;;;0.90;;
25780;SDS011;13626;48.128;11.628;2023-11-19T03:53:17;1.63;;;0.90;;
25780;SDS011;13626;48.128;11.628;2023-11-19T03:55:45;1.25;;;0.90;;
25780;SDS011;13626;48.128;11.628;2023-11-19T03:58:12;1.23;;;0.75;;
25780;SDS011;13626;48.128;11.628;2023-11-19T04:00:40;0.85;;;0.60;;
25780;SDS011;13626;48.128;11.628;2023-11-19T04:03:07;1.13;;;0.90;;
25780;SDS011;13626;48.128;11.628;2023-11-19T04:05:34;0.95;;;0.90;;
25780;SDS011;13626;48.128;11.628;2023-11-19T04:08:02;1.02;;;0.82;;
25780;SDS011;13626;48.128;11.628;2023-11-19T04:10:29;0.70;;;0.70;;
25780;SDS011;13626;48.128;11.628;2023-11-19T04:12:56;0.95;;;0.82;;
25780;SDS011;13626;48.128;11.628;2023-11-19T04:15:23;1.10;;;0.93;;
25780;SDS011;13626;48.128;11.628;2023-11-19T04:17:51;0.95;;;0.90;;
25780;SDS011;13626;48.128;11.628;2023-11-19T04:20:18;1.17;;;0.90;;
25780;SDS011;13626;48.128;11.628;2023-11-19T04:22:45;0.77;;;0.75;;
25780;SDS011;13626;48.128;11.628;2023-11-19T04:25:12;0.82;;;0.82;;
25780;SDS011;13626;48.128;11.628;2023-11-19T04:27:41;1.13;;;1.00;;
25780;SDS011;13626;48.128;11.628;2023-11-19T04:30:09;1.48;;;0.90;;
25780;SDS011;13626;48.128;11.628;2023-11-19T04:32:37;1.35;;;0.82;;
25780;SDS011;13626;48.128;11.628;2023-11-19T04:35:05;1.08;;;0.98;;
25780;SDS011;13626;48.128;11.628;2023-11-19T04:37:33;0.80;;;0.80;;
25780;SDS011;13626;48.128;11.628;2023-11-19T04:40:01;1.70;;;0.80;;
25780;SDS011;13626;48.128;11.628;2023-11-19T04:42:28;1.00;;;0.90;;
25780;SDS011;13626;48.128;11.628;2023-11-19T04:44:56;1.38;;;1.02;;
25780;SDS011;13626;48.128;11.628;2023-11-19T04:47:23;1.23;;;1.10;;
25780;SDS011;13626;48.128;11.628;2023-11-19T04:49:50;1.30;;;0.88;;
25780;SDS011;13626;48.128;11.628;2023-11-19T04:52:18;0.90;;;0.90;;
25780;SDS011;13626;48.128;11.628;2023-11-19T04:54:45;1.50;;;0.73;;
25780;SDS011;13626;48.128;11.628;2023-11-19T04:57:12;2.13;;;0.90;;
25780;SDS011;13626;48.128;11.628;2023-11-19T04:59:39;2.30;;;1.17;;
25780;SDS011;13626;48.128;11.628;2023-11-19T05:02:08;1.80;;;0.70;;
25780;SDS011;13626;48.128;11.628;2023-11-19T05:04:36;0.77;;;0.75;;
25780;SDS011;13626;48.128;11.628;2023-11-19T05:07:06;1.17;;;0.77;;
25780;SDS011;13626;48.128;11.628;2023-11-19T05:09:34;1.48;;;0.60;;
25780;SDS011;13626;48.128;11.628;2023-11-19T05:12:01;1.95;;;0.40;;
25780;SDS011;13626;48.128;11.628;2023-11-19T05:14:29;0.90;;;0.70;;
25780;SDS011;13626;48.128;11.628;2023-11-19T05:16:56;1.48;;;0.30;;
25780;SDS011;13626;48.128;11.628;2023-11-19T05:19:23;1.65;;;0.40;;
25780;SDS011;13626;48.128;11.628;2023-11-19T05:21:51;0.45;;;0.45;;
25780;SDS011;13626;48.128;11.628;2023-11-19T05:24:18;0.60;;;0.43;;
25780;SDS011;13626;48.128;11.628;2023-11-19T05:26:46;0.45;;;0.45;;
25780;SDS011;13626;48.128;11.628;2023-11-19T05:29:13;1.13;;;0.63;;
25780;SDS011;13626;48.128;11.628;2023-11-19T05:31:40;0.40;;;0.40;;
25780;SDS011;13626;48.128;11.628;2023-11-19T05:34:10;1.42;;;0.80;;
25780;SDS011;13626;48.128;11.628;2023-11-19T05:36:38;1.30;;;0.70;;
25780;SDS011;13626;48.128;11.628;2023-11-19T05:39:06;0.68;;;0.68;;
25780;SDS011;13626;48.128;11.628;2023-11-19T05:41:33;0.93;;;0.70;;
25780;SDS011;13626;48.128;11.628;2023-11-19T05:44:00;2.10;;;0.93;;
25780;SDS011;13626;48.128;11.628;2023-11-19T05:46:28;0.73;;;0.50;;
25780;SDS011;13626;48.128;11.628;2023-11-19T05:48:55;1.30;;;0.50;;
25780;SDS011;13626;48.128;11.628;2023-11-19T05:51:23;1.25;;;0.50;;
25780;SDS011;13626;48.128;11.628;2023-11-19T05:53:51;0.70;;;0.70;;
25780;SDS011;13626;48.128;11.628;2023-11-19T05:56:18;0.50;;;0.50;;
25780;SDS011;13626;48.128;11.628;2023-11-19T05:58:48;0.57;;;0.40;;
25780;SDS011;13626;48.128;11.628;2023-11-19T06:01:15;1.25;;;0.73;;
25780;SDS011;13626;48.128;11.628;2023-11-19T06:03:43;1.92;;;0.50;;
25780;SDS011;13626;48.128;11.628;2023-11-19T06:06:16;0.60;;;0.52;;
25780;SDS011;13626;48.128;11.628;2023-11-19T06:08:43;0.63;;;0.55;;
25780;SDS011;13626;48.128;11.628;2023-11-19T06:11:10;0.63;;;0.60;;
25780;SDS011;13626;48.128;11.628;2023-11-19T06:13:44;0.73;;;0.73;;
25780;SDS011;13626;48.128;11.628;2023-11-19T06:16:12;1.13;;;0.43;;
25780;SDS011;13626;48.128;11.628;2023-11-19T06:18:40;0.47;;;0.47;;
25780;SDS011;13626;48.128;11.628;2023-11-19T06:21:08;0.70;;;0.40;;
25780;SDS011;13626;48.128;11.628;2023-11-19T06:23:35;0.73;;;0.50;;
25780;SDS011;13626;48.128;11.628;2023-11-19T06:26:02;0.65;;;0.50;;
25780;SDS011;13626;48.128;11.628;2023-11-19T06:28:31;1.63;;;0.65;;
25780;SDS011;13626;48.128;11.628;2023-11-19T06:30:59;0.73;;;0.50;;
25780;SDS011;13626;48.128;11.628;2023-11-19T06:33:27;0.40;;;0.40;;
25780;SDS011;13626;48.128;11.628;2023-11-19T06:35:54;0.20;;;0.20;;
25780;SDS011;13626;48.128;11.628;2023-11-19T06:38:21;0.30;;;0.30;;
25780;SDS011;13626;48.128;11.628;2023-11-19T06:40:49;0.45;;;0.38;;
25780;SDS011;13626;48.128;11.628;2023-11-19T06:43:20;0.93;;;0.40;;
25780;SDS011;13626;48.128;11.628;2023-11-19T06:45:48;0.88;;;0.30;;
25780;SDS011;13626;48.128;11.628;2023-11-19T06:48:15;0.63;;;0.40;;
25780;SDS011;13626;48.128;11.628;2023-11-19T06:50:42;0.30;;;0.30;;
25780;SDS011;13626;48.128;11.628;2023-11-19T06:53:10;0.30;;;0.30;;
25780;SDS011;13626;48.128;11.628;2023-11-19T06:55:37;0.77;;;0.77;;
25780;SDS011;13626;48.128;11.628;2023-11-19T06:58:05;0.10;;;0.10;;
25780;SDS011;13626;48.128;11.628;2023-11-19T07:00:33;0.20;;;0.20;;
25780;SDS011;13626;48.128;11.628;2023-11-19T07:03:02;0.30;;;0.30;;
25780;SDS011;13626;48.128;11.628;2023-11-19T07:05:29;0.22;;;0.22;;
25780;SDS011;13626;48.128;11.628;2023-11-19T07:07:57;0.63;;;0.20;;
25780;SDS011;13626;48.128;11.628;2023-11-19T07:10:24;0.45;;;0.38;;
25780;SDS011;13626;48.128;11.628;2023-11-19T07:12:51;0.75;;;0.47;;
25780;SDS011;13626;48.128;11.628;2023-11-19T07:15:18;1.50;;;1.10;;
25780;SDS011;13626;48.128;11.628;2023-11-19T07:17:46;0.25;;;0.22;;
25780;SDS011;13626;48.128;11.628;2023-11-19T07:20:26;0.22;;;0.20;;
25780;SDS011;13626;48.128;11.628;2023-11-19T07:22:54;0.20;;;0.20;;
25780;SDS011;13626;48.128;11.628;2023-11-19T07:25:24;0.63;;;0.20;;
25780;SDS011;13626;48.128;11.628;2023-11-19T07:27:51;0.38;;;0.38;;
25780;SDS011;13626;48.128;11.628;2023-11-19T07:30:19;0.45;;;0.45;;
25780;SDS011;13626;48.128;11.628;2023-11-19T07:32:46;2.38;;;0.50;;
25780;SDS011;13626;48.128;11.628;2023-11-19T07:35:14;0.25;;;0.25;;
25780;SDS011;13626;48.128;11.628;2023-11-19T07:37:42;0.30;;;0.30;;
25780;SDS011;13626;48.128;11.628;2023-11-19T07:40:09;0.30;;;0.30;;
25780;SDS011;13626;48.128;11.628;2023-11-19T07:42:38;0.20;;;0.20;;
25780;SDS011;13626;48.128;11.628;2023-11-19T07:45:06;0.25;;;0.25;;
25780;SDS011;13626;48.128;11.628;2023-11-19T07:47:33;0.55;;;0.50;;
25780;SDS011;13626;48.128;11.628;2023-11-19T07:50:01;0.40;;;0.30;;
25780;SDS011;13626;48.128;11.628;2023-11-19T07:52:28;0.40;;;0.40;;
25780;SDS011;13626;48.128;11.628;2023-11-19T07:54:55;3.35;;;0.22;;
25780;SDS011;13626;48.128;11.628;2023-11-19T07:57:22;0.43;;;0.38;;
25780;SDS011;13626;48.128;11.628;2023-11-19T07:59:59;0.93;;;0.28;;
25780;SDS011;13626;48.128;11.628;2023-11-19T08:02:28;0.68;;;0.40;;
25780;SDS011;13626;48.128;11.628;2023-11-19T08:04:55;1.42;;;0.32;;
25780;SDS011;13626;48.128;11.628;2023-11-19T08:07:23;0.30;;;0.30;;
25780;SDS011;13626;48.128;11.628;2023-11-19T08:09:50;0.20;;;0.20;;
25780;SDS011;13626;48.128;11.628;2023-11-19T08:12:17;0.30;;;0.30;;
25780;SDS011;13626;48.128;11.628;2023-11-19T08:14:45;0.30;;;0.30;;
25780;SDS011;13626;48.128;11.628;2023-11-19T08:17:12;0.30;;;0.30;;
25780;SDS011;13626;48.128;11.628;2023-11-19T08:19:39;0.40;;;0.40;;
25780;SDS011;13626;48.128;11.628;2023-11-19T08:22:06;0.60;;;0.40;;
25780;SDS011;13626;48.128;11.628;2023-11-19T08:24:35;0.43;;;0.43;;
25780;SDS011;13626;48.128;11.628;2023-11-19T08:27:02;0.20;;;0.20;;
25780;SDS011;13626;48.128;11.628;2023-11-19T08:29:30;0.70;;;0.55;;
25780;SDS011;13626;48.128;11.628;2023-11-19T08:31:57;1.38;;;0.30;;
25780;SDS011;13626;48.128;11.628;2023-11-19T08:34:27;0.45;;;0.40;;
25780;SDS011;13626;48.128;11.628;2023-11-19T08:36:54;0.28;;;0.28;;
25780;SDS011;13626;48.128;11.628;2023-11-19T08:39:22;1.55;;;0.47;;
25780;SDS011;13626;48.128;11.628;2023-11-19T08:41:49;0.40;;;0.40;;
25780;SDS011;13626;48.128;11.628;2023-11-19T08:44:17;0.32;;;0.30;;
25780;SDS011;13626;48.128;11.628;2023-11-19T08:46:47;0.30;;;0.30;;
25780;SDS011;13626;48.128;11.628;2023-11-19T08:49:14;0.35;;;0.35;;
25780;SDS011;13626;48.128;11.628;2023-11-19T08:51:42;0.70;;;0.40;;
25780;SDS011;13626;48.128;11.628;2023-11-19T08:54:09;0.70;;;0.45;;
25780;SDS011;13626;48.128;11.628;2023-11-19T08:56:37;0.57;;;0.43;;
25780;SDS011;13626;48.128;11.628;2023-11-19T08:59:05;0.55;;;0.40;;
25780;SDS011;13626;48.128;11.628;2023-11-19T09:01:33;0.70;;;0.38;;
25780;SDS011;13626;48.128;11.628;2023-11-19T09:04:00;0.32;;;0.32;;
25780;SDS011;13626;48.128;11.628;2023-11-19T09:06:28;0.40;;;0.40;;
25780;SDS011;13626;48.128;11.628;2023-11-19T09:08:55;0.52;;;0.50;;
25780;SDS011;13626;48.128;11.628;2023-11-19T09:11:26;0.30;;;0.30;;
25780;SDS011;13626;48.128;11.628;2023-11-19T09:13:54;0.77;;;0.40;;
25780;SDS011;13626;48.128;11.628;2023-11-19T09:16:21;0.40;;;0.40;;
25780;SDS011;13626;48.128;11.628;2023-11-19T09:18:48;0.38;;;0.38;;
25780;SDS011;13626;48.128;11.628;2023-11-19T09:21:16;0.40;;;0.40;;
25780;SDS011;13626;48.128;11.628;2023-11-19T09:23:44;0.32;;;0.32;;
25780;SDS011;13626;48.128;11.628;2023-11-19T09:26:13;1.13;;;0.52;;
25780;SDS011;13626;48.128;11.628;2023-11-19T09:28:40;0.40;;;0.40;;
25780;SDS011;13626;48.128;11.628;2023-11-19T09:31:14;0.45;;;0.40;;
25780;SDS011;13626;48.128;11.628;2023-11-19T09:33:41;0.50;;;0.50;;
25780;SDS011;13626;48.128;11.628;2023-11-19T09:36:09;0.50;;;0.50;;
25780;SDS011;13626;48.128;11.628;2023-11-19T09:38:38;0.45;;;0.40;;
25780;SDS011;13626;48.128;11.628;2023-11-19T09:41:05;0.50;;;0.38;;
25780;SDS011;13626;48.128;11.628;2023-11-19T09:43:41;0.30;;;0.30;;
25780;SDS011;13626;48.128;11.628;2023-11-19T09:46:13;0.45;;;0.45;;
25780;SDS011;13626;48.128;11.628;2023-11-19T09:48:40;0.60;;;0.55;;
25780;SDS011;13626;48.128;11.628;2023-11-19T09:51:09;0.63;;;0.40;;
25780;SDS011;13626;48.128;11.628;2023-11-19T09:53:37;0.80;;;0.60;;
25780;SDS011;13626;48.128;11.628;2023-11-19T09:56:05;0.57;;;0.50;;
25780;SDS011;13626;48.128;11.628;2023-11-19T09:58:32;2.75;;;0.75;;
25780;SDS011;13626;48.128;11.628;2023-11-19T10:01:00;0.50;;;0.50;;
25780;SDS011;13626;48.128;11.628;2023-11-19T10:03:32;0.82;;;0.60;;
25780;SDS011;13626;48.128;11.628;2023-11-19T10:06:08;0.82;;;0.55;;
25780;SDS011;13626;48.128;11.628;2023-11-19T10:08:37;1.27;;;0.50;;
25780;SDS011;13626;48.128;11.628;2023-11-19T10:11:06;0.65;;;0.50;;
25780;SDS011;13626;48.128;11.628;2023-11-19T10:13:36;0.60;;;0.50;;
25780;SDS011;13626;48.128;11.628;2023-11-19T10:16:09;0.73;;;0.63;;
25780;SDS011;13626;48.128;11.628;2023-11-19T10:18:42;1.27;;;0.68;;
25780;SDS011;13626;48.128;11.628;2023-11-19T10:21:11;0.50;;;0.50;;
25780;SDS011;13626;48.128;11.628;2023-11-19T10:23:50;0.47;;;0.47;;
25780;SDS011;13626;48.128;11.628;2023-11-19T10:26:18;0.50;;;0.50;;
25780;SDS011;13626;48.128;11.628;2023-11-19T10:28:46;0.40;;;0.40;;
25780;SDS011;13626;48.128;11.628;2023-11-19T10:31:14;0.47;;;0.47;;
25780;SDS011;13626;48.128;11.628;2023-11-19T10:33:42;1.05;;;0.60;;
25780;SDS011;13626;48.128;11.628;2023-11-19T10:36:11;0.80;;;0.43;;
25780;SDS011;13626;48.128;11.628;2023-11-19T10:38:39;0.40;;;0.38;;
25780;SDS011;13626;48.128;11.628;2023-11-19T10:41:07;0.50;;;0.50;;
25780;SDS011;13626;48.128;11.628;2023-11-19T10:43:43;0.50;;;0.47;;
25780;SDS011;13626;48.128;11.628;2023-11-19T10:46:11;0.75;;;0.30;;
25780;SDS011;13626;48.128;11.628;2023-11-19T10:48:39;0.40;;;0.30;;
25780;SDS011;13626;48.128;11.628;2023-11-19T10:51:07;0.95;;;0.40;;
25780;SDS011;13626;48.128;11.628;2023-11-19T10:53:35;0.55;;;0.45;;
25780;SDS011;13626;48.128;11.628;2023-11-19T10:56:10;1.40;;;0.47;;
25780;SDS011;13626;48.128;11.628;2023-11-19T10:58:39;1.17;;;0.65;;
25780;SDS011;13626;48.128;11.628;2023-11-19T11:01:11;1.58;;;0.60;;
25780;SDS011;13626;48.128;11.628;2023-11-19T11:03:40;0.60;;;0.50;;
25780;SDS011;13626;48.128;11.628;2023-11-19T11:06:08;0.70;;;0.40;;
25780;SDS011;13626;48.128;11.628;2023-11-19T11:08:36;0.30;;;0.28;;
25780;SDS011;13626;48.128;11.628;2023-11-19T11:11:05;1.10;;;0.55;;
25780;SDS011;13626;48.128;11.628;2023-11-19T11:13:34;0.25;;;0.20;;
25780;SDS011;13626;48.128;11.628;2023-11-19T11:16:04;0.82;;;0.40;;
25780;SDS011;13626;48.128;11.628;2023-11-19T11:18:33;1.40;;;0.63;;
25780;SDS011;13626;48.128;11.628;2023-11-19T11:21:01;0.57;;;0.40;;
25780;SDS011;13626;48.128;11.628;2023-11-19T11:26:28;2.15;;;0.45;;
25780;SDS011;13626;48.128;11.628;2023-11-19T11:36:53;0.65;;;0.60;;
25780;SDS011;13626;48.128;11.628;2023-11-19T11:39:22;0.47;;;0.30;;
25780;SDS011;13626;48.128;11.628;2023-11-19T11:47:23;0.40;;;0.38;;
25780;SDS011;13626;48.128;11.628;2023-11-19T11:49:51;0.40;;;0.30;;
25780;SDS011;13626;48.128;11.628;2023-11-19T11:52:18;0.55;;;0.35;;
25780;SDS011;13626;48.128;11.628;2023-11-19T11:54:46;0.32;;;0.32;;
25780;SDS011;13626;48.128;11.628;2023-11-19T11:57:14;0.30;;;0.22;;
25780;SDS011;13626;48.128;11.628;2023-11-19T12:02:12;2.05;;;0.38;;
25780;SDS011;13626;48.128;11.628;2023-11-19T12:04:40;0.30;;;0.30;;
25780;SDS011;13626;48.128;11.628;2023-11-19T12:07:20;0.47;;;0.40;;
25780;SDS011;13626;48.128;11.628;2023-11-19T12:09:50;0.20;;;0.20;;
25780;SDS011;13626;48.128;11.628;2023-11-19T12:12:19;0.47;;;0.20;;
25780;SDS011;13626;48.128;11.628;2023-11-19T12:20:01;0.55;;;0.40;;
25780;SDS011;13626;48.128;11.628;2023-11-19T12:22:29;0.43;;;0.40;;
25780;SDS011;13626;48.128;11.628;2023-11-19T12:24:57;1.40;;;0.40;;
25780;SDS011;13626;48.128;11.628;2023-11-19T12:27:24;0.20;;;0.20;;
25780;SDS011;13626;48.128;11.628;2023-11-19T12:29:52;0.68;;;0.57;;
25780;SDS011;13626;48.128;11.628;2023-11-19T12:32:20;0.30;;;0.30;;
25780;SDS011;13626;48.128;11.628;2023-11-19T12:34:48;0.30;;;0.30;;
25780;SDS011;13626;48.128;11.628;2023-11-19T12:37:15;0.73;;;0.45;;
25780;SDS011;13626;48.128;11.628;2023-11-19T12:39:42;0.47;;;0.40;;
25780;SDS011;13626;48.128;11.628;2023-11-19T12:42:10;0.77;;;0.60;;
25780;SDS011;13626;48.128;11.628;2023-11-19T12:44:38;0.93;;;0.50;;
25780;SDS011;13626;48.128;11.628;2023-11-19T12:47:06;0.60;;;0.60;;
25780;SDS011;13626;48.128;11.628;2023-11-19T12:49:34;1.00;;;0.50;;
25780;SDS011;13626;48.128;11.628;2023-11-19T12:52:01;0.40;;;0.40;;
25780;SDS011;13626;48.128;11.628;2023-11-19T12:54:35;1.30;;;0.30;;
25780;SDS011;13626;48.128;11.628;2023-11-19T12:57:04;0.40;;;0.40;;
25780;SDS011;13626;48.128;11.628;2023-11-19T12:59:31;0.30;;;0.30;;
25780;SDS011;13626;48.128;11.628;2023-11-19T13:01:59;1.58;;;0.45;;
25780;SDS011;13626;48.128;11.628;2023-11-19T13:04:30;0.52;;;0.30;;
25780;SDS011;13626;48.128;11.628;2023-11-19T13:06:58;0.20;;;0.20;;
25780;SDS011;13626;48.128;11.628;2023-11-19T13:09:28;0.68;;;0.40;;
25780;SDS011;13626;48.128;11.628;2023-11-19T13:11:56;0.65;;;0.60;;
25780;SDS011;13626;48.128;11.628;2023-11-19T13:14:35;0.68;;;0.50;;
25780;SDS011;13626;48.128;11.628;2023-11-19T13:17:04;0.40;;;0.38;;
25780;SDS011;13626;48.128;11.628;2023-11-19T13:19:32;0.40;;;0.40;;
25780;SDS011;13626;48.128;11.628;2023-11-19T13:21:59;0.73;;;0.50;;
25780;SDS011;13626;48.128;11.628;2023-11-19T13:24:27;0.98;;;0.57;;
25780;SDS011;13626;48.128;11.628;2023-11-19T13:26:54;1.25;;;0.70;;
25780;SDS011;13626;48.128;11.628;2023-11-19T13:29:22;0.80;;;0.50;;
25780;SDS011;13626;48.128;11.628;2023-11-19T13:31:49;0.80;;;0.60;;
25780;SDS011;13626;48.128;11.628;2023-11-19T13:34:17;0.80;;;0.60;;
25780;SDS011;13626;48.128;11.628;2023-11-19T13:36:44;1.15;;;0.60;;
25780;SDS011;13626;48.128;11.628;2023-11-19T13:39:11;0.47;;;0.45;;
25780;SDS011;13626;48.128;11.628;2023-11-19T13:41:39;1.02;;;0.45;;
25780;SDS011;13626;48.128;11.628;2023-11-19T13:44:06;1.17;;;0.80;;
25780;SDS011;13626;48.128;11.628;2023-11-19T13:46:33;0.60;;;0.57;;
25780;SDS011;13626;48.128;11.628;2023-11-19T13:49:00;0.70;;;0.63;;
25780;SDS011;13626;48.128;11.628;2023-11-19T13:51:29;0.47;;;0.47;;
25780;SDS011;13626;48.128;11.628;2023-11-19T13:53:56;1.48;;;1.23;;
25780;SDS011;13626;48.128;11.628;2023-11-19T13:56:24;0.60;;;0.60;;
25780;SDS011;13626;48.128;11.628;2023-11-19T13:58:51;0.60;;;0.55;;
25780;SDS011;13626;48.128;11.628;2023-11-19T14:01:20;0.85;;;0.45;;
25780;SDS011;13626;48.128;11.628;2023-11-19T14:03:50;0.47;;;0.47;;
25780;SDS011;13626;48.128;11.628;2023-11-19T14:06:17;0.70;;;0.47;;
25780;SDS011;13626;48.128;11.628;2023-11-19T14:08:45;0.47;;;0.43;;
25780;SDS011;13626;48.128;11.628;2023-11-19T14:11:12;1.45;;;0.82;;
25780;SDS011;13626;48.128;11.628;2023-11-19T14:13:39;2.15;;;0.45;;
25780;SDS011;13626;48.128;11.628;2023-11-19T14:16:07;0.95;;;0.63;;
25780;SDS011;13626;48.128;11.628;2023-11-19T14:18:35;1.25;;;0.88;;
25780;SDS011;13626;48.128;11.628;2023-11-19T14:21:02;0.55;;;0.55;;
25780;SDS011;13626;48.128;11.628;2023-11-19T14:23:30;0.98;;;0.70;;
25780;SDS011;13626;48.128;11.628;2023-11-19T14:25:57;0.73;;;0.50;;
25780;SDS011;13626;48.128;11.628;2023-11-19T14:28:24;0.40;;;0.40;;
25780;SDS011;13626;48.128;11.628;2023-11-19T14:30:52;0.80;;;0.60;;
25780;SDS011;13626;48.128;11.628;2023-11-19T14:33:23;0.47;;;0.47;;
25780;SDS011;13626;48.128;11.628;2023-11-19T14:35:50;0.85;;;0.45;;
25780;SDS011;13626;48.128;11.628;2023-11-19T14:38:18;0.40;;;0.30;;
25780;SDS011;13626;48.128;11.628;2023-11-19T14:40:45;1.95;;;0.55;;
25780;SDS011;13626;48.128;11.628;2023-11-19T14:43:14;1.08;;;0.70;;
25780;SDS011;13626;48.128;11.628;2023-11-19T14:45:42;0.50;;;0.50;;
25780;SDS011;13626;48.128;11.628;2023-11-19T14:48:15;0.73;;;0.60;;
25780;SDS011;13626;48.128;11.628;2023-11-19T14:50:44;1.45;;;0.50;;
25780;SDS011;13626;48.128;11.628;2023-11-19T14:53:11;1.65;;;0.70;;
25780;SDS011;13626;48.128;11.628;2023-11-19T14:55:39;0.65;;;0.50;;
25780;SDS011;13626;48.128;11.628;2023-11-19T14:58:06;0.95;;;0.45;;
25780;SDS011;13626;48.128;11.628;2023-11-19T15:00:37;1.52;;;0.43;;
25780;SDS011;13626;48.128;11.628;2023-11-19T15:03:05;0.55;;;0.55;;